| time (UTC) | temp F | wind direction | speed knots | gust knots | rain 1hr in | rain 24hr in | rain mn in | humidity % | barometer mb |
| 20260504193111 | -88 | 327 | 0.0 | 0.0 | 0.88 | 1.00 | 1.00 | 1014.7 | |
| 20260504191555 | -90 | 10 | 0.0 | 0.0 | 0.79 | 0.90 | 0.90 | 1015.0 | |
| 20260504190113 | -90 | 22 | 0.0 | 0.0 | 0.65 | 0.76 | 0.76 | 1015.0 | |
| 20260504184556 | -90 | 32 | 0.0 | 0.0 | 0.45 | 0.49 | 0.49 | 1015.2 | |
| 20260504183043 | -90 | 327 | 0.0 | 0.0 | 0.12 | 0.12 | 0.12 | 1015.1 | |
| 20260504181533 | -90 | 28 | 0.0 | 0.0 | 0.11 | 0.11 | 0.11 | 1015.3 | |
| 20260504180028 | -90 | 327 | 0.0 | 0.0 | 0.11 | 0.11 | 0.11 | 1015.4 | |
| 20260504174526 | -90 | 327 | 0.0 | 0.0 | 0.04 | 0.04 | 0.04 | 1015.7 | |
| 20260504173033 | -90 | 15 | 0.0 | 0.0 | 0.00 | 0.00 | 0.00 | 1015.6 | |
| 20260504171524 | -90 | 327 | 0.0 | 0.0 | 0.00 | 0.00 | 0.00 | 1015.7 | |
| 20260504110119 | 0 | 0.0 | 0.0 | 0.00 | 0.00 | 0.00 | 1014.4 | ||
| 20260504081529 | -90 | 327 | 0.0 | 0.0 | 0.00 | 0.00 | 0.00 | 1014.1 | |
| 20260504050018 | -90 | 327 | 0.0 | 0.0 | 0.00 | 0.00 | 0.00 | 1016.2 | |
| 20260504044532 | -90 | 327 | 0.0 | 0.0 | 0.00 | 0.00 | 0.00 | 1016.2 | |
| 20260504043040 | -90 | 327 | 0.0 | 0.0 | 0.00 | 0.00 | 0.00 | 1016.3 | |
| 20260504041535 | -90 | 327 | 0.0 | 0.0 | 0.00 | 0.00 | 0.00 | 1016.3 | |
| 20260504040002 | -90 | 327 | 0.0 | 0.0 | 0.00 | 0.00 | 0.00 | 1016.4 | |
| 20260504034604 | -90 | 327 | 0.0 | 0.0 | 0.00 | 0.00 | 0.00 | 1016.6 | |
| 20260504033101 | -90 | 327 | 0.0 | 0.0 | 0.00 | 0.00 | 0.00 | 1016.7 | |
| 20260504031519 | -90 | 327 | 0.0 | 0.0 | 0.00 | 0.00 | 0.00 | 1016.6 | |
| 20260504030014 | -90 | 327 | 0.0 | 0.0 | 0.00 | 0.00 | 0.00 | 1016.7 | |
| 20260504024515 | -90 | 327 | 0.0 | 0.0 | 0.00 | 0.00 | 0.00 | 1016.8 | |
| 20260504023003 | -90 | 327 | 0.0 | 0.0 | 0.00 | 0.00 | 0.00 | 1016.6 | |
| 20260504021559 | -90 | 327 | 0.0 | 0.0 | 0.00 | 0.00 | 0.00 | 1016.4 | |
| 20260504020054 | -90 | 327 | 0.0 | 0.0 | 0.00 | 0.00 | 0.00 | 1016.2 | |
| 20260504014549 | -90 | 327 | 0.0 | 0.0 | 0.00 | 0.00 | 0.00 | 1016.1 | |
| 20260504013049 | -90 | 327 | 0.0 | 0.0 | 0.00 | 0.00 | 0.00 | 1015.6 | |
| 20260504011540 | -90 | 327 | 0.0 | 0.0 | 0.00 | 0.00 | 0.00 | 1015.2 | |
| 20260504010051 | -90 | 327 | 0.0 | 0.0 | 0.00 | 0.00 | 0.00 | 1015.1 | |
| 20260504004510 | -90 | 327 | 0.0 | 0.0 | 0.00 | 0.00 | 0.00 | 1015.1 | |
| 20260504003006 | -90 | 327 | 0.0 | 0.0 | 0.00 | 0.00 | 0.00 | 1014.9 | |
| 20260504001546 | -90 | 327 | 0.0 | 0.0 | 0.00 | 0.00 | 0.00 | 1014.8 | |
| 20260504000040 | -90 | 327 | 0.0 | 0.0 | 0.00 | 0.00 | 0.00 | 1014.5 | |
| 20260503234534 | -90 | 327 | 0.0 | 0.0 | 0.00 | 0.00 | 0.00 | 1014.2 | |
| 20260503233034 | -90 | 327 | 0.0 | 0.0 | 0.00 | 0.00 | 0.00 | 1014.0 | |
| 20260503231532 | -90 | 327 | 0.0 | 0.0 | 0.00 | 0.00 | 0.00 | 1014.0 | |
| 20260503230032 | -90 | 327 | 0.0 | 0.0 | 0.00 | 0.00 | 0.00 | 1014.0 | |
| 20260503224529 | -90 | 327 | 0.0 | 0.0 | 0.00 | 0.00 | 0.00 | 1014.0 | |
| 20260503223028 | -90 | 327 | 0.0 | 0.0 | 0.00 | 0.00 | 0.00 | 1014.0 | |
| 20260503221537 | -90 | 327 | 0.0 | 0.0 | 0.00 | 0.00 | 0.00 | 1014.0 | |
| 20260503220028 | -90 | 327 | 0.0 | 0.0 | 0.00 | 0.00 | 0.00 | 1014.0 | |
| 20260503214526 | -90 | 327 | 0.0 | 0.0 | 0.00 | 0.00 | 0.00 | 1014.0 | |
| 20260503213031 | -90 | 327 | 0.0 | 0.0 | 0.00 | 0.00 | 0.00 | 1014.1 | |
| 20260503211525 | -90 | 327 | 0.0 | 0.0 | 0.00 | 0.00 | 0.00 | 1014.2 | |
| 20260503210025 | -90 | 327 | 0.0 | 0.0 | 0.00 | 0.00 | 0.00 | 1014.1 | |
| 20260503204525 | -90 | 327 | 0.0 | 0.0 | 0.00 | 0.00 | 0.00 | 1014.1 | |
| 20260503203022 | -90 | 327 | 0.0 | 0.0 | 0.00 | 0.00 | 0.00 | 1014.3 | |
| 20260503201528 | -90 | 327 | 0.0 | 0.0 | 0.00 | 0.00 | 0.00 | 1014.4 | |
| 20260503200030 | -90 | 327 | 0.0 | 0.0 | 0.00 | 0.00 | 0.00 | 1014.5 | |
| 20260503194526 | -90 | 327 | 0.0 | 0.0 | 0.00 | 0.00 | 0.00 | 1014.6 |